sensor_id;sensor_type;location;lat;lon;timestamp;pressure;altitude;pressure_sealevel;temperature;humidity
63694;BME280;49839;51.798;10.954;2023-07-08T00:01:09;99504.13;;;19.38;49.37
63694;BME280;49839;51.798;10.954;2023-07-08T00:03:38;99498.78;;;19.38;48.92
63694;BME280;49839;51.798;10.954;2023-07-08T00:06:11;99501.22;;;19.41;49.44
63694;BME280;49839;51.798;10.954;2023-07-08T00:08:42;99503.75;;;19.43;49.53
63694;BME280;49839;51.798;10.954;2023-07-08T00:11:10;99496.88;;;19.40;49.55
63694;BME280;49839;51.798;10.954;2023-07-08T00:13:38;99501.38;;;19.40;49.33
63694;BME280;49839;51.798;10.954;2023-07-08T00:16:09;99498.78;;;19.38;51.50
63694;BME280;49839;51.798;10.954;2023-07-08T00:18:37;99494.06;;;19.21;53.23
63694;BME280;49839;51.798;10.954;2023-07-08T00:21:08;99498.34;;;19.12;53.63
63694;BME280;49839;51.798;10.954;2023-07-08T00:23:36;99490.84;;;19.06;53.52
63694;BME280;49839;51.798;10.954;2023-07-08T00:26:10;99491.25;;;19.02;54.06
63694;BME280;49839;51.798;10.954;2023-07-08T00:28:38;99485.44;;;18.97;53.40
63694;BME280;49839;51.798;10.954;2023-07-08T00:31:08;99493.09;;;18.90;53.19
63694;BME280;49839;51.798;10.954;2023-07-08T00:33:37;99490.09;;;18.83;54.18
63694;BME280;49839;51.798;10.954;2023-07-08T00:36:09;99492.28;;;18.78;54.58
63694;BME280;49839;51.798;10.954;2023-07-08T00:38:38;99491.81;;;18.73;55.12
63694;BME280;49839;51.798;10.954;2023-07-08T00:41:17;99493.28;;;18.66;55.01
63694;BME280;49839;51.798;10.954;2023-07-08T00:43:49;99497.28;;;18.60;54.89
63694;BME280;49839;51.798;10.954;2023-07-08T00:46:38;99504.00;;;18.55;55.06
63694;BME280;49839;51.798;10.954;2023-07-08T00:49:17;99491.25;;;18.47;54.99
63694;BME280;49839;51.798;10.954;2023-07-08T00:51:47;99491.88;;;18.39;55.59
63694;BME280;49839;51.798;10.954;2023-07-08T00:54:18;99487.88;;;18.34;55.51
63694;BME280;49839;51.798;10.954;2023-07-08T00:56:49;99493.63;;;18.29;55.56
63694;BME280;49839;51.798;10.954;2023-07-08T00:59:24;99490.06;;;18.29;55.13
63694;BME280;49839;51.798;10.954;2023-07-08T01:01:53;99485.72;;;18.28;55.22
63694;BME280;49839;51.798;10.954;2023-07-08T01:04:27;99485.97;;;18.25;55.49
63694;BME280;49839;51.798;10.954;2023-07-08T01:06:57;99492.28;;;18.24;55.54
63694;BME280;49839;51.798;10.954;2023-07-08T01:09:27;99492.66;;;18.19;56.27
63694;BME280;49839;51.798;10.954;2023-07-08T01:11:59;99493.00;;;18.14;56.37
63694;BME280;49839;51.798;10.954;2023-07-08T01:14:30;99492.28;;;18.12;56.82
63694;BME280;49839;51.798;10.954;2023-07-08T01:17:01;99478.13;;;18.12;57.01
63694;BME280;49839;51.798;10.954;2023-07-08T01:19:29;99489.75;;;18.11;57.24
63694;BME280;49839;51.798;10.954;2023-07-08T01:22:01;99481.00;;;18.09;57.36
63694;BME280;49839;51.798;10.954;2023-07-08T01:24:30;99474.72;;;18.10;55.83
63694;BME280;49839;51.798;10.954;2023-07-08T01:26:59;99472.16;;;18.08;57.49
63694;BME280;49839;51.798;10.954;2023-07-08T01:29:28;99463.44;;;18.06;57.06
63694;BME280;49839;51.798;10.954;2023-07-08T01:31:56;99471.44;;;18.06;56.30
63694;BME280;49839;51.798;10.954;2023-07-08T01:34:24;99464.44;;;18.05;57.56
63694;BME280;49839;51.798;10.954;2023-07-08T01:36:54;99459.22;;;18.04;57.46
63694;BME280;49839;51.798;10.954;2023-07-08T01:39:26;99465.28;;;18.06;56.77
63694;BME280;49839;51.798;10.954;2023-07-08T01:41:56;99456.44;;;18.05;57.24
63694;BME280;49839;51.798;10.954;2023-07-08T01:44:26;99456.28;;;18.07;57.04
63694;BME280;49839;51.798;10.954;2023-07-08T01:46:55;99453.88;;;18.04;57.17
63694;BME280;49839;51.798;10.954;2023-07-08T01:49:25;99452.31;;;18.01;56.67
63694;BME280;49839;51.798;10.954;2023-07-08T01:51:52;99454.97;;;18.01;57.34
63694;BME280;49839;51.798;10.954;2023-07-08T01:54:20;99451.31;;;18.02;57.48
63694;BME280;49839;51.798;10.954;2023-07-08T01:56:54;99446.97;;;18.01;57.57
63694;BME280;49839;51.798;10.954;2023-07-08T01:59:22;99449.75;;;18.00;57.51
63694;BME280;49839;51.798;10.954;2023-07-08T02:01:50;99454.47;;;17.96;57.15
63694;BME280;49839;51.798;10.954;2023-07-08T02:04:21;99457.28;;;17.95;57.93
63694;BME280;49839;51.798;10.954;2023-07-08T02:06:51;99449.41;;;17.93;56.87
63694;BME280;49839;51.798;10.954;2023-07-08T02:09:19;99453.41;;;17.88;57.38
63694;BME280;49839;51.798;10.954;2023-07-08T02:11:48;99447.47;;;17.84;57.77
63694;BME280;49839;51.798;10.954;2023-07-08T02:14:16;99442.16;;;17.84;57.37
63694;BME280;49839;51.798;10.954;2023-07-08T02:16:43;99441.91;;;17.87;57.54
63694;BME280;49839;51.798;10.954;2023-07-08T02:19:11;99436.44;;;17.89;57.18
63694;BME280;49839;51.798;10.954;2023-07-08T02:21:39;99433.75;;;17.89;57.83
63694;BME280;49839;51.798;10.954;2023-07-08T02:24:07;99437.41;;;17.88;57.74
63694;BME280;49839;51.798;10.954;2023-07-08T02:26:35;99439.34;;;17.85;57.67
63694;BME280;49839;51.798;10.954;2023-07-08T02:29:04;99440.06;;;17.88;57.46
63694;BME280;49839;51.798;10.954;2023-07-08T02:31:31;99434.03;;;17.85;57.15
63694;BME280;49839;51.798;10.954;2023-07-08T02:33:59;99434.03;;;17.85;57.24
63694;BME280;49839;51.798;10.954;2023-07-08T02:36:28;99435.84;;;17.85;57.43
63694;BME280;49839;51.798;10.954;2023-07-08T02:38:56;99439.34;;;17.85;57.88
63694;BME280;49839;51.798;10.954;2023-07-08T02:41:24;99428.22;;;17.80;57.67
63694;BME280;49839;51.798;10.954;2023-07-08T02:43:51;99425.53;;;17.80;57.14
63694;BME280;49839;51.798;10.954;2023-07-08T02:46:20;99428.81;;;17.84;56.41
63694;BME280;49839;51.798;10.954;2023-07-08T02:48:48;99429.19;;;17.79;57.85
63694;BME280;49839;51.798;10.954;2023-07-08T02:51:15;99425.19;;;17.74;58.30
63694;BME280;49839;51.798;10.954;2023-07-08T02:53:43;99435.19;;;17.70;57.73
63694;BME280;49839;51.798;10.954;2023-07-08T02:56:11;99422.84;;;17.69;57.57
63694;BME280;49839;51.798;10.954;2023-07-08T02:58:38;99427.19;;;17.70;57.28
63694;BME280;49839;51.798;10.954;2023-07-08T03:01:06;99419.19;;;17.70;57.13
63694;BME280;49839;51.798;10.954;2023-07-08T03:03:35;99422.13;;;17.67;57.38
63694;BME280;49839;51.798;10.954;2023-07-08T03:06:04;99419.59;;;17.66;57.86
63694;BME280;49839;51.798;10.954;2023-07-08T03:08:32;99417.78;;;17.66;58.19
63694;BME280;49839;51.798;10.954;2023-07-08T03:11:01;99413.41;;;17.65;57.78
63694;BME280;49839;51.798;10.954;2023-07-08T03:13:30;99419.69;;;17.64;58.78
63694;BME280;49839;51.798;10.954;2023-07-08T03:15:58;99413.63;;;17.62;58.60
63694;BME280;49839;51.798;10.954;2023-07-08T03:18:27;99419.69;;;17.64;58.39
63694;BME280;49839;51.798;10.954;2023-07-08T03:20:57;99416.53;;;17.70;58.30
63694;BME280;49839;51.798;10.954;2023-07-08T03:23:25;99427.19;;;17.70;59.18
63694;BME280;49839;51.798;10.954;2023-07-08T03:25:53;99418.34;;;17.70;59.11
63694;BME280;49839;51.798;10.954;2023-07-08T03:28:21;99415.63;;;17.71;59.23
63694;BME280;49839;51.798;10.954;2023-07-08T03:30:52;99417.06;;;17.75;59.29
63694;BME280;49839;51.798;10.954;2023-07-08T03:33:20;99415.00;;;17.79;59.64
63694;BME280;49839;51.798;10.954;2023-07-08T03:35:48;99415.72;;;17.81;59.15
63694;BME280;49839;51.798;10.954;2023-07-08T03:38:17;99415.59;;;17.82;58.86
63694;BME280;49839;51.798;10.954;2023-07-08T03:40:45;99425.78;;;17.89;58.22
63694;BME280;49839;51.798;10.954;2023-07-08T03:43:12;99425.63;;;17.90;58.31
63694;BME280;49839;51.798;10.954;2023-07-08T03:45:40;99425.53;;;17.92;58.66
63694;BME280;49839;51.798;10.954;2023-07-08T03:48:08;99438.47;;;17.96;58.77
63694;BME280;49839;51.798;10.954;2023-07-08T03:50:37;99432.78;;;18.01;58.09
63694;BME280;49839;51.798;10.954;2023-07-08T03:53:05;99426.13;;;18.06;57.73
63694;BME280;49839;51.798;10.954;2023-07-08T03:55:34;99427.31;;;18.13;56.98
63694;BME280;49839;51.798;10.954;2023-07-08T03:58:02;99429.34;;;18.21;58.08
63694;BME280;49839;51.798;10.954;2023-07-08T04:00:29;99430.53;;;18.28;58.53
63694;BME280;49839;51.798;10.954;2023-07-08T04:02:57;99434.66;;;18.32;58.88
63694;BME280;49839;51.798;10.954;2023-07-08T04:05:25;99425.06;;;18.41;59.09
63694;BME280;49839;51.798;10.954;2023-07-08T04:07:53;99429.63;;;18.61;58.80
63694;BME280;49839;51.798;10.954;2023-07-08T04:10:20;99427.16;;;19.02;57.73
63694;BME280;49839;51.798;10.954;2023-07-08T04:12:49;99422.34;;;19.68;55.00
63694;BME280;49839;51.798;10.954;2023-07-08T04:15:17;99421.81;;;20.24;54.06
63694;BME280;49839;51.798;10.954;2023-07-08T04:17:46;99423.84;;;20.70;53.13
63694;BME280;49839;51.798;10.954;2023-07-08T04:20:18;99422.09;;;21.27;51.21
63694;BME280;49839;51.798;10.954;2023-07-08T04:22:46;99428.16;;;21.76;49.61
63694;BME280;49839;51.798;10.954;2023-07-08T04:25:14;99429.97;;;22.23;47.92
63694;BME280;49839;51.798;10.954;2023-07-08T04:27:42;99424.84;;;22.65;46.49
63694;BME280;49839;51.798;10.954;2023-07-08T04:30:19;99428.28;;;23.11;45.43
63694;BME280;49839;51.798;10.954;2023-07-08T04:32:49;99427.78;;;23.59;45.25
63694;BME280;49839;51.798;10.954;2023-07-08T04:35:17;99429.09;;;23.89;44.65
63694;BME280;49839;51.798;10.954;2023-07-08T04:37:45;99426.03;;;24.10;44.73
63694;BME280;49839;51.798;10.954;2023-07-08T04:40:17;99431.34;;;24.44;43.42
63694;BME280;49839;51.798;10.954;2023-07-08T04:42:49;99428.88;;;24.83;41.41
63694;BME280;49839;51.798;10.954;2023-07-08T04:45:19;99433.59;;;24.90;41.80
63694;BME280;49839;51.798;10.954;2023-07-08T04:47:47;99434.28;;;24.92;41.29
63694;BME280;49839;51.798;10.954;2023-07-08T04:50:19;99428.41;;;25.21;40.71
63694;BME280;49839;51.798;10.954;2023-07-08T04:52:47;99428.72;;;25.34;40.40
63694;BME280;49839;51.798;10.954;2023-07-08T04:55:16;99431.91;;;25.46;40.71
63694;BME280;49839;51.798;10.954;2023-07-08T04:57:44;99443.00;;;25.59;41.10
63694;BME280;49839;51.798;10.954;2023-07-08T05:00:15;99441.63;;;25.79;40.15
63694;BME280;49839;51.798;10.954;2023-07-08T05:02:44;99449.00;;;25.93;39.28
63694;BME280;49839;51.798;10.954;2023-07-08T05:05:13;99445.50;;;25.85;38.02
63694;BME280;49839;51.798;10.954;2023-07-08T05:07:40;99452.44;;;25.79;38.49
63694;BME280;49839;51.798;10.954;2023-07-08T05:10:08;99447.97;;;26.03;38.66
63694;BME280;49839;51.798;10.954;2023-07-08T05:12:36;99446.59;;;26.07;38.55
63694;BME280;49839;51.798;10.954;2023-07-08T05:15:05;99446.91;;;26.12;39.10
63694;BME280;49839;51.798;10.954;2023-07-08T05:17:34;99447.13;;;26.33;38.17
63694;BME280;49839;51.798;10.954;2023-07-08T05:20:03;99443.91;;;26.38;38.46
63694;BME280;49839;51.798;10.954;2023-07-08T05:22:31;99446.81;;;26.67;38.43
63694;BME280;49839;51.798;10.954;2023-07-08T05:24:59;99442.41;;;26.89;38.74
63694;BME280;49839;51.798;10.954;2023-07-08T05:27:27;99438.16;;;26.95;39.01
63694;BME280;49839;51.798;10.954;2023-07-08T05:29:55;99435.56;;;27.24;38.29
63694;BME280;49839;51.798;10.954;2023-07-08T05:32:22;99432.59;;;27.49;38.12
63694;BME280;49839;51.798;10.954;2023-07-08T05:34:51;99434.13;;;27.81;37.49
63694;BME280;49839;51.798;10.954;2023-07-08T05:37:20;99439.72;;;27.94;36.88
63694;BME280;49839;51.798;10.954;2023-07-08T05:39:51;99434.75;;;28.13;37.11
63694;BME280;49839;51.798;10.954;2023-07-08T05:42:19;99439.72;;;28.24;36.64
63694;BME280;49839;51.798;10.954;2023-07-08T05:44:47;99434.94;;;28.26;36.29
63694;BME280;49839;51.798;10.954;2023-07-08T05:47:15;99439.16;;;28.65;36.08
63694;BME280;49839;51.798;10.954;2023-07-08T05:49:42;99441.16;;;28.56;35.73
63694;BME280;49839;51.798;10.954;2023-07-08T05:52:10;99434.88;;;28.55;35.66
63694;BME280;49839;51.798;10.954;2023-07-08T05:54:40;99438.28;;;28.79;35.04
63694;BME280;49839;51.798;10.954;2023-07-08T05:57:09;99434.06;;;28.98;35.17
63694;BME280;49839;51.798;10.954;2023-07-08T05:59:38;99429.31;;;29.28;34.45
63694;BME280;49839;51.798;10.954;2023-07-08T06:02:06;99431.41;;;29.26;34.56
63694;BME280;49839;51.798;10.954;2023-07-08T06:04:34;99429.59;;;29.33;34.71
63694;BME280;49839;51.798;10.954;2023-07-08T06:07:02;99429.78;;;29.59;34.74
63694;BME280;49839;51.798;10.954;2023-07-08T06:09:29;99427.78;;;29.75;34.09
63694;BME280;49839;51.798;10.954;2023-07-08T06:11:59;99425.44;;;29.65;34.50
63694;BME280;49839;51.798;10.954;2023-07-08T06:14:26;99434.94;;;29.76;34.68
63694;BME280;49839;51.798;10.954;2023-07-08T06:16:54;99434.22;;;30.02;33.69
63694;BME280;49839;51.798;10.954;2023-07-08T06:19:22;99428.28;;;30.26;33.46
63694;BME280;49839;51.798;10.954;2023-07-08T06:21:50;99430.94;;;30.13;33.54
63694;BME280;49839;51.798;10.954;2023-07-08T06:24:17;99432.09;;;30.38;33.12
63694;BME280;49839;51.798;10.954;2023-07-08T06:29:21;99437.53;;;30.38;34.06
63694;BME280;49839;51.798;10.954;2023-07-08T06:31:49;99435.06;;;30.57;33.63
63694;BME280;49839;51.798;10.954;2023-07-08T06:34:17;99434.84;;;30.52;33.38
63694;BME280;49839;51.798;10.954;2023-07-08T06:36:45;99432.16;;;30.65;33.63
63694;BME280;49839;51.798;10.954;2023-07-08T06:39:15;99436.13;;;30.62;33.15
63694;BME280;49839;51.798;10.954;2023-07-08T06:41:46;99435.56;;;30.73;32.06
63694;BME280;49839;51.798;10.954;2023-07-08T06:44:14;99435.28;;;30.55;33.14
63694;BME280;49839;51.798;10.954;2023-07-08T07:05:39;99429.56;;;31.38;31.87
63694;BME280;49839;51.798;10.954;2023-07-08T07:29:45;99432.13;;;30.52;32.13
63694;BME280;49839;51.798;10.954;2023-07-08T10:06:17;99428.16;;;35.75;25.02
63694;BME280;49839;51.798;10.954;2023-07-08T10:19:33;99431.94;;;35.74;25.19
63694;BME280;49839;51.798;10.954;2023-07-08T10:35:34;99415.88;;;36.29;23.88
63694;BME280;49839;51.798;10.954;2023-07-08T10:54:34;99406.81;;;35.53;23.87
63694;BME280;49839;51.798;10.954;2023-07-08T11:24:00;99389.91;;;32.96;25.83
63694;BME280;49839;51.798;10.954;2023-07-08T11:26:34;99397.84;;;33.04;27.08
63694;BME280;49839;51.798;10.954;2023-07-08T11:31:47;99384.97;;;32.86;25.55
63694;BME280;49839;51.798;10.954;2023-07-08T11:39:43;99383.97;;;32.43;25.78
63694;BME280;49839;51.798;10.954;2023-07-08T11:44:54;99377.94;;;32.27;26.64
63694;BME280;49839;51.798;10.954;2023-07-08T11:47:26;99373.19;;;32.16;26.89
63694;BME280;49839;51.798;10.954;2023-07-08T11:50:00;99380.63;;;31.96;26.89
63694;BME280;49839;51.798;10.954;2023-07-08T11:52:29;99381.44;;;31.96;27.07
63694;BME280;49839;51.798;10.954;2023-07-08T11:55:15;99378.47;;;32.04;27.52
63694;BME280;49839;51.798;10.954;2023-07-08T12:09:16;99380.19;;;31.92;26.39
63694;BME280;49839;51.798;10.954;2023-07-08T12:11:54;99369.47;;;32.04;25.88
63694;BME280;49839;51.798;10.954;2023-07-08T12:14:22;99360.91;;;31.94;25.91
63694;BME280;49839;51.798;10.954;2023-07-08T12:16:50;99357.59;;;31.85;26.66
63694;BME280;49839;51.798;10.954;2023-07-08T12:19:20;99367.59;;;31.98;26.57
63694;BME280;49839;51.798;10.954;2023-07-08T12:21:49;99367.56;;;32.04;26.26
63694;BME280;49839;51.798;10.954;2023-07-08T12:27:13;99368.41;;;32.05;25.77
63694;BME280;49839;51.798;10.954;2023-07-08T12:32:25;99355.16;;;32.15;25.62
63694;BME280;49839;51.798;10.954;2023-07-08T12:34:55;99364.41;;;32.14;25.66
63694;BME280;49839;51.798;10.954;2023-07-08T12:39:58;99369.31;;;32.30;26.42
63694;BME280;49839;51.798;10.954;2023-07-08T12:48:10;99353.78;;;31.93;25.08
63694;BME280;49839;51.798;10.954;2023-07-08T12:50:37;99353.41;;;31.89;25.05
63694;BME280;49839;51.798;10.954;2023-07-08T13:03:59;99348.56;;;32.29;24.73
63694;BME280;49839;51.798;10.954;2023-07-08T13:11:54;99335.28;;;32.08;24.21
63694;BME280;49839;51.798;10.954;2023-07-08T13:14:27;99339.91;;;32.07;24.56
63694;BME280;49839;51.798;10.954;2023-07-08T13:25:13;99327.19;;;32.26;24.60
63694;BME280;49839;51.798;10.954;2023-07-08T13:27:54;99322.56;;;32.33;24.36
63694;BME280;49839;51.798;10.954;2023-07-08T13:30:26;99321.66;;;32.46;24.55
63694;BME280;49839;51.798;10.954;2023-07-08T13:38:19;99321.34;;;32.23;24.07
63694;BME280;49839;51.798;10.954;2023-07-08T13:43:40;99319.22;;;32.25;24.26
63694;BME280;49839;51.798;10.954;2023-07-08T13:46:28;99315.06;;;32.22;23.58
63694;BME280;49839;51.798;10.954;2023-07-08T13:49:28;99314.31;;;32.08;23.96
63694;BME280;49839;51.798;10.954;2023-07-08T13:52:29;99306.47;;;32.19;24.21
63694;BME280;49839;51.798;10.954;2023-07-08T13:55:30;99313.53;;;32.26;24.15
63694;BME280;49839;51.798;10.954;2023-07-08T13:58:33;99309.94;;;32.32;23.42
63694;BME280;49839;51.798;10.954;2023-07-08T14:01:42;99307.22;;;32.32;23.71
63694;BME280;49839;51.798;10.954;2023-07-08T14:04:12;99301.75;;;32.32;21.67
63694;BME280;49839;51.798;10.954;2023-07-08T14:06:46;99309.59;;;32.22;22.52
63694;BME280;49839;51.798;10.954;2023-07-08T14:09:18;99313.63;;;32.13;22.64
63694;BME280;49839;51.798;10.954;2023-07-08T14:11:48;99310.06;;;32.13;23.10
63694;BME280;49839;51.798;10.954;2023-07-08T14:14:17;99300.69;;;32.08;23.82
63694;BME280;49839;51.798;10.954;2023-07-08T14:16:49;99300.44;;;32.10;23.33
63694;BME280;49839;51.798;10.954;2023-07-08T14:19:21;99307.78;;;32.10;24.66
63694;BME280;49839;51.798;10.954;2023-07-08T14:21:52;99306.78;;;32.04;23.65
63694;BME280;49839;51.798;10.954;2023-07-08T14:24:20;99304.84;;;32.11;23.97
63694;BME280;49839;51.798;10.954;2023-07-08T14:26:48;99303.34;;;32.15;23.10
63694;BME280;49839;51.798;10.954;2023-07-08T14:29:16;99309.22;;;32.12;24.57
63694;BME280;49839;51.798;10.954;2023-07-08T14:31:43;99305.38;;;31.95;24.61
63694;BME280;49839;51.798;10.954;2023-07-08T14:34:23;99300.19;;;31.80;23.71
63694;BME280;49839;51.798;10.954;2023-07-08T14:36:52;99305.22;;;31.83;23.78
63694;BME280;49839;51.798;10.954;2023-07-08T14:39:21;99304.13;;;31.91;24.15
63694;BME280;49839;51.798;10.954;2023-07-08T14:41:51;99306.19;;;31.95;23.85
63694;BME280;49839;51.798;10.954;2023-07-08T14:44:21;99300.41;;;31.78;23.37
63694;BME280;49839;51.798;10.954;2023-07-08T14:46:48;99301.81;;;31.88;24.35
63694;BME280;49839;51.798;10.954;2023-07-08T14:49:20;99302.06;;;31.79;23.56
63694;BME280;49839;51.798;10.954;2023-07-08T14:51:49;99304.16;;;31.77;23.35
63694;BME280;49839;51.798;10.954;2023-07-08T14:54:20;99298.28;;;31.80;23.02
63694;BME280;49839;51.798;10.954;2023-07-08T14:56:49;99308.34;;;31.80;23.81
63694;BME280;49839;51.798;10.954;2023-07-08T14:59:18;99308.78;;;31.77;23.10
63694;BME280;49839;51.798;10.954;2023-07-08T15:01:46;99301.84;;;31.74;22.66
63694;BME280;49839;51.798;10.954;2023-07-08T15:04:16;99303.13;;;31.78;22.37
63694;BME280;49839;51.798;10.954;2023-07-08T15:06:48;99301.19;;;31.86;22.78
63694;BME280;49839;51.798;10.954;2023-07-08T15:09:18;99302.25;;;31.85;23.26
63694;BME280;49839;51.798;10.954;2023-07-08T15:11:46;99290.13;;;31.80;23.83
63694;BME280;49839;51.798;10.954;2023-07-08T15:14:19;99295.19;;;31.70;24.93
63694;BME280;49839;51.798;10.954;2023-07-08T15:16:47;99300.66;;;31.64;24.90
63694;BME280;49839;51.798;10.954;2023-07-08T15:19:15;99290.63;;;31.58;25.09
63694;BME280;49839;51.798;10.954;2023-07-08T15:21:45;99286.06;;;31.45;25.11
63694;BME280;49839;51.798;10.954;2023-07-08T15:24:14;99293.81;;;31.35;24.67
63694;BME280;49839;51.798;10.954;2023-07-08T15:26:45;99292.78;;;31.36;25.46
63694;BME280;49839;51.798;10.954;2023-07-08T15:29:15;99295.31;;;31.31;23.33
63694;BME280;49839;51.798;10.954;2023-07-08T15:31:44;99290.72;;;31.31;24.09
63694;BME280;49839;51.798;10.954;2023-07-08T15:34:13;99294.66;;;31.35;24.49
63694;BME280;49839;51.798;10.954;2023-07-08T15:36:44;99289.88;;;31.31;24.27
63694;BME280;49839;51.798;10.954;2023-07-08T15:39:16;99286.97;;;31.25;25.39
63694;BME280;49839;51.798;10.954;2023-07-08T15:41:47;99283.16;;;31.20;24.19
63694;BME280;49839;51.798;10.954;2023-07-08T15:44:14;99286.31;;;31.23;25.08
63694;BME280;49839;51.798;10.954;2023-07-08T15:46:44;99288.38;;;31.21;24.08
63694;BME280;49839;51.798;10.954;2023-07-08T15:49:16;99286.09;;;31.32;24.38
63694;BME280;49839;51.798;10.954;2023-07-08T15:51:44;99279.00;;;31.31;24.61
63694;BME280;49839;51.798;10.954;2023-07-08T15:54:16;99277.09;;;31.31;25.07
63694;BME280;49839;51.798;10.954;2023-07-08T15:56:45;99267.69;;;31.27;24.46
63694;BME280;49839;51.798;10.954;2023-07-08T16:02:01;99265.19;;;31.25;24.45
63694;BME280;49839;51.798;10.954;2023-07-08T16:04:32;99278.53;;;31.34;24.36
63694;BME280;49839;51.798;10.954;2023-07-08T16:07:01;99277.69;;;31.40;24.06
63694;BME280;49839;51.798;10.954;2023-07-08T16:09:31;99277.06;;;31.38;24.13
63694;BME280;49839;51.798;10.954;2023-07-08T16:12:00;99279.56;;;31.39;23.44
63694;BME280;49839;51.798;10.954;2023-07-08T16:14:29;99277.47;;;31.41;24.07
63694;BME280;49839;51.798;10.954;2023-07-08T16:17:00;99275.00;;;31.33;25.12
63694;BME280;49839;51.798;10.954;2023-07-08T16:19:28;99275.81;;;31.34;25.17
63694;BME280;49839;51.798;10.954;2023-07-08T16:21:56;99273.94;;;31.27;24.51
63694;BME280;49839;51.798;10.954;2023-07-08T16:24:24;99274.56;;;31.23;24.96
63694;BME280;49839;51.798;10.954;2023-07-08T16:26:56;99268.50;;;31.14;23.99
63694;BME280;49839;51.798;10.954;2023-07-08T16:29:25;99275.03;;;31.07;24.73
63694;BME280;49839;51.798;10.954;2023-07-08T16:31:54;99271.69;;;31.05;25.33
63694;BME280;49839;51.798;10.954;2023-07-08T16:34:22;99271.06;;;31.02;25.95
63694;BME280;49839;51.798;10.954;2023-07-08T16:36:49;99276.94;;;30.93;24.84
63694;BME280;49839;51.798;10.954;2023-07-08T16:39:17;99273.78;;;30.89;25.88
63694;BME280;49839;51.798;10.954;2023-07-08T16:41:46;99281.56;;;30.86;25.55
63694;BME280;49839;51.798;10.954;2023-07-08T16:44:16;99279.69;;;30.80;25.43
63694;BME280;49839;51.798;10.954;2023-07-08T16:46:45;99282.59;;;30.78;26.02
63694;BME280;49839;51.798;10.954;2023-07-08T16:49:13;99273.59;;;30.78;25.07
63694;BME280;49839;51.798;10.954;2023-07-08T16:51:41;99275.47;;;30.77;25.28
63694;BME280;49839;51.798;10.954;2023-07-08T16:54:10;99275.69;;;30.69;25.39
63694;BME280;49839;51.798;10.954;2023-07-08T16:56:39;99267.75;;;30.67;26.08
63694;BME280;49839;51.798;10.954;2023-07-08T16:59:07;99268.97;;;30.65;25.17
63694;BME280;49839;51.798;10.954;2023-07-08T17:01:38;99277.13;;;30.65;25.26
63694;BME280;49839;51.798;10.954;2023-07-08T17:04:09;99277.34;;;30.63;25.10
63694;BME280;49839;51.798;10.954;2023-07-08T17:06:38;99283.84;;;30.62;26.14
63694;BME280;49839;51.798;10.954;2023-07-08T17:09:08;99282.38;;;30.53;26.21
63694;BME280;49839;51.798;10.954;2023-07-08T17:11:39;99281.94;;;30.50;26.20
63694;BME280;49839;51.798;10.954;2023-07-08T17:14:07;99275.88;;;30.41;26.61
63694;BME280;49839;51.798;10.954;2023-07-08T17:16:37;99280.06;;;30.37;26.06
63694;BME280;49839;51.798;10.954;2023-07-08T17:19:05;99275.44;;;30.31;26.38
63694;BME280;49839;51.798;10.954;2023-07-08T17:21:33;99274.41;;;30.32;26.29
63694;BME280;49839;51.798;10.954;2023-07-08T17:24:00;99272.31;;;30.27;25.96
63694;BME280;49839;51.798;10.954;2023-07-08T17:26:28;99268.34;;;30.23;26.92
63694;BME280;49839;51.798;10.954;2023-07-08T17:28:56;99272.72;;;30.17;26.35
63694;BME280;49839;51.798;10.954;2023-07-08T17:31:23;99274.38;;;30.12;27.24
63694;BME280;49839;51.798;10.954;2023-07-08T17:34:18;99268.06;;;30.05;26.92
63694;BME280;49839;51.798;10.954;2023-07-08T17:36:50;99273.25;;;30.00;27.01
63694;BME280;49839;51.798;10.954;2023-07-08T17:39:22;99274.09;;;29.93;27.36
63694;BME280;49839;51.798;10.954;2023-07-08T17:41:50;99271.16;;;29.88;27.41
63694;BME280;49839;51.798;10.954;2023-07-08T17:44:21;99268.00;;;29.85;27.33
63694;BME280;49839;51.798;10.954;2023-07-08T17:46:49;99271.13;;;29.82;27.37
63694;BME280;49839;51.798;10.954;2023-07-08T17:49:21;99271.31;;;29.74;27.30
63694;BME280;49839;51.798;10.954;2023-07-08T17:51:49;99266.09;;;29.72;27.36
63694;BME280;49839;51.798;10.954;2023-07-08T17:54:19;99275.06;;;29.66;28.14
63694;BME280;49839;51.798;10.954;2023-07-08T17:56:47;99274.59;;;29.62;27.81
63694;BME280;49839;51.798;10.954;2023-07-08T17:59:18;99267.50;;;29.61;27.81
63694;BME280;49839;51.798;10.954;2023-07-08T18:01:47;99267.94;;;29.58;27.71
63694;BME280;49839;51.798;10.954;2023-07-08T18:04:15;99277.50;;;29.54;27.88
63694;BME280;49839;51.798;10.954;2023-07-08T18:06:44;99275.22;;;29.51;28.37
63694;BME280;49839;51.798;10.954;2023-07-08T18:09:12;99273.06;;;29.47;28.20
63694;BME280;49839;51.798;10.954;2023-07-08T18:11:45;99275.53;;;29.41;28.39
63694;BME280;49839;51.798;10.954;2023-07-08T18:14:16;99276.16;;;29.37;28.48
63694;BME280;49839;51.798;10.954;2023-07-08T18:16:44;99275.91;;;29.32;29.41
63694;BME280;49839;51.798;10.954;2023-07-08T18:19:11;99271.31;;;29.32;29.68
63694;BME280;49839;51.798;10.954;2023-07-08T18:21:39;99284.91;;;29.32;29.92
63694;BME280;49839;51.798;10.954;2023-07-08T18:24:10;99282.56;;;29.29;30.27
63694;BME280;49839;51.798;10.954;2023-07-08T18:26:38;99282.78;;;29.28;31.14
63694;BME280;49839;51.798;10.954;2023-07-08T18:29:06;99276.94;;;29.24;30.45
63694;BME280;49839;51.798;10.954;2023-07-08T18:31:37;99275.00;;;29.18;30.24
63694;BME280;49839;51.798;10.954;2023-07-08T18:34:05;99276.81;;;29.11;31.36
63694;BME280;49839;51.798;10.954;2023-07-08T18:36:35;99284.53;;;29.07;31.22
63694;BME280;49839;51.798;10.954;2023-07-08T18:39:03;99280.94;;;29.00;31.24
63694;BME280;49839;51.798;10.954;2023-07-08T18:41:38;99284.25;;;28.96;32.67